Terminal Aerodrome Forecast
Issued by NWS

Home | Current Version | Previous Version | Graphics & Text | Print | Product List | Glossary On
Versions: 1 2 3 4 5 6 7 8 9 10 11 12 13 14 15 16
000
FTUS43 KMPX 251732
TAFAXN
TAF
KAXN 251732Z 2518/2618 30027G36KT P6SM BKN020
     FM252200 32022G30KT P6SM BKN035
     FM260100 32015G25KT P6SM SCT035
     FM260700 33010KT P6SM SKC
     FM261500 34012G20KT P6SM SKC=

USA.gov is the U.S. government's official web portal to all federal, state and local government web resources and services.